Lowest pressure

Not for real navigation. The accuracy of this data is not assured See disclaimer for more information



ICAO NAME COUNTRY WIND Kt GUST Kt VIS m TEMP/DEW C BARO METAR
SCRM 29 0 1500 0/0 29.03 SCRM 161300Z 30029KT 1500 FZDZ OVC002 M00/M00 Q0983 NOSIG
NZCM Williams Field Antarctica 0 0 9999 -30/-34 29.05 NZCM 161155Z 00000KT 9999 CAVOK M30/M34 A2905 RMK AO2A SLP846 T12991340
RJCK Kushiro Airport Japan 9 0 8000 11/11 29.12 RJCK 161146Z 02009KT 8000 -SHRA FEW003 SCT008 BKN030 11/11 Q0986 RMK 1ST003 3ST008 6CU030 A2913
RJSM Misawa Ab Japan 7 0 9999 14/14 29.23 RJSM 161200Z 24007KT 9999 -SHRA FEW008 BKN025 BKN040 14/14 Q0990
RJCC Chitose Ab Japan 22 33 9999 13/8 29.23 RJCC 161230Z 35022G33KT 9999 FEW025 SCT060 BKN120 13/08 Q0990 RMK 1CU025 3CU060 7AC120 A2923

Show more